createdAt,value
2019-01-20T00:00:12.398Z,40.30
2019-01-20T00:01:12.311Z,38.40
2019-01-20T00:02:12.223Z,41.80
2019-01-20T00:03:12.135Z,40.10
2019-01-20T00:04:12.037Z,39.90
2019-01-20T00:05:11.951Z,37.60
2019-01-20T00:06:11.875Z,38.60
2019-01-20T00:07:11.774Z,41.90
2019-01-20T00:08:11.686Z,40.70
2019-01-20T00:09:11.601Z,41.60
2019-01-20T00:10:11.511Z,39.10
2019-01-20T00:11:16.610Z,42.80
2019-01-20T00:12:11.326Z,38.40
2019-01-20T00:13:11.236Z,39.40
2019-01-20T00:14:11.150Z,40.80
2019-01-20T00:15:11.062Z,39.00
2019-01-20T00:16:10.975Z,41.80
2019-01-20T00:17:10.887Z,41.30
2019-01-20T00:18:10.792Z,41.60
2019-01-20T00:19:10.704Z,37.60
2019-01-20T00:20:10.653Z,36.90
2019-01-20T00:21:10.526Z,36.20
2019-01-20T00:22:10.439Z,38.70
2019-01-20T00:23:10.351Z,37.10
2019-01-20T00:24:10.262Z,37.70
2019-01-20T00:25:10.267Z,37.20
2019-01-20T00:26:10.076Z,41.90
2019-01-20T00:27:10.238Z,38.40
2019-01-20T00:28:09.901Z,36.30
2019-01-20T00:29:09.813Z,38.50
2019-01-20T00:30:09.726Z,40.50
2019-01-20T00:31:09.628Z,38.70
2019-01-20T00:32:09.539Z,41.20
2019-01-20T00:33:09.453Z,34.60
2019-01-20T00:34:09.377Z,39.90
2019-01-20T00:35:09.278Z,42.20
2019-01-20T00:36:09.189Z,38.80
2019-01-20T00:37:09.091Z,38.50
2019-01-20T00:38:09.003Z,40.50
2019-01-20T00:39:08.916Z,41.10
2019-01-20T00:40:08.828Z,36.40
2019-01-20T00:41:08.742Z,47.10
2019-01-20T00:42:08.653Z,37.60
2019-01-20T00:43:08.564Z,40.00
2019-01-20T00:44:08.470Z,41.60
2019-01-20T00:45:08.388Z,40.80
2019-01-20T00:46:08.290Z,38.90
2019-01-20T00:47:08.204Z,38.60
2019-01-20T00:48:08.115Z,39.60
2019-01-20T00:49:08.031Z,38.20
2019-01-20T00:50:07.929Z,41.60
2019-01-20T00:51:07.854Z,38.40
2019-01-20T00:52:07.757Z,37.50
2019-01-20T00:53:07.665Z,40.70
2019-01-20T00:54:07.579Z,40.60
2019-01-20T00:55:07.491Z,36.30
2019-01-20T00:56:07.392Z,42.10
2019-01-20T00:57:07.308Z,38.40
2019-01-20T00:58:07.220Z,39.10
2019-01-20T00:59:07.132Z,48.00
2019-01-20T01:00:07.043Z,42.50
2019-01-20T01:01:06.955Z,44.80
2019-01-20T01:02:06.879Z,43.20
2019-01-20T01:03:06.780Z,42.40
2019-01-20T01:04:06.680Z,45.20
2019-01-20T01:05:06.592Z,40.90
2019-01-20T01:06:06.519Z,43.50
2019-01-20T01:07:06.418Z,42.40
2019-01-20T01:08:06.331Z,40.90
2019-01-20T01:09:06.231Z,44.70
2019-01-20T01:10:06.145Z,43.30
2019-01-20T01:11:06.056Z,38.30
2019-01-20T01:12:05.969Z,43.10
2019-01-20T01:13:05.881Z,38.70
2019-01-20T01:14:05.794Z,41.10
2019-01-20T01:15:05.694Z,40.40
2019-01-20T01:16:05.608Z,40.40
2019-01-20T01:17:05.518Z,43.10
2019-01-20T01:18:05.432Z,41.20
2019-01-20T01:19:05.344Z,41.90
2019-01-20T01:20:05.256Z,39.10
2019-01-20T01:21:05.189Z,40.50
2019-01-20T01:22:05.083Z,38.10
2019-01-20T01:23:04.982Z,41.20
2019-01-20T01:24:04.895Z,39.20
2019-01-20T01:25:04.808Z,38.80
2019-01-20T01:26:04.721Z,38.10
2019-01-20T01:27:04.623Z,41.60
2019-01-20T01:28:04.544Z,41.70
2019-01-20T01:29:04.458Z,42.50
2019-01-20T01:30:04.358Z,41.20
2019-01-20T01:31:04.283Z,40.00
2019-01-20T01:32:04.183Z,44.80
2019-01-20T01:33:04.097Z,44.70
2019-01-20T01:34:03.997Z,41.50
2019-01-20T01:35:03.910Z,41.50
2019-01-20T01:36:03.825Z,40.00
2019-01-20T01:37:03.734Z,44.00
2019-01-20T01:38:03.645Z,42.50
2019-01-20T01:39:03.547Z,38.80
2019-01-20T01:40:03.462Z,39.60
2019-01-20T01:41:03.371Z,37.00
2019-01-20T01:42:03.284Z,43.70
2019-01-20T01:43:03.197Z,42.30
2019-01-20T01:44:03.109Z,40.40
2019-01-20T01:45:03.034Z,38.20
2019-01-20T01:46:02.935Z,41.30
2019-01-20T01:47:02.835Z,54.40
2019-01-20T01:48:02.749Z,43.30
2019-01-20T01:49:02.661Z,38.30
2019-01-20T01:50:02.572Z,42.50
2019-01-20T01:51:02.473Z,47.20
2019-01-20T01:52:02.389Z,48.80
2019-01-20T01:53:02.297Z,48.00
2019-01-20T01:54:02.211Z,44.90
2019-01-20T01:55:02.124Z,45.30
2019-01-20T01:56:02.037Z,50.90
2019-01-20T01:57:01.948Z,46.00
2019-01-20T01:58:01.848Z,52.20
2019-01-20T01:59:01.762Z,51.10
2019-01-20T02:00:01.678Z,42.10
2019-01-20T02:01:01.587Z,48.70
2019-01-20T02:02:01.763Z,41.50
2019-01-20T02:03:01.400Z,41.60
2019-01-20T02:04:01.326Z,46.40
2019-01-20T02:05:01.224Z,43.10
2019-01-20T02:06:01.138Z,45.80
2019-01-20T02:07:01.062Z,43.00
2019-01-20T02:08:00.963Z,44.80
2019-01-20T02:09:00.863Z,44.10
2019-01-20T02:10:00.856Z,46.20
2019-01-20T02:11:00.688Z,43.10
2019-01-20T02:12:00.600Z,45.60
2019-01-20T02:13:00.512Z,44.10
2019-01-20T02:14:00.426Z,41.00
2019-01-20T02:15:00.325Z,45.90
2019-01-20T02:16:00.238Z,40.50
2019-01-20T02:17:00.151Z,47.40
2019-01-20T02:18:00.065Z,40.50
2019-01-20T02:18:59.975Z,44.30
2019-01-20T02:19:59.877Z,42.60
2019-01-20T02:20:59.789Z,42.60
2019-01-20T02:21:59.702Z,42.70
2019-01-20T02:22:59.614Z,45.60
2019-01-20T02:23:59.526Z,44.10
2019-01-20T02:24:59.440Z,41.60
2019-01-20T02:25:59.340Z,43.60
2019-01-20T02:26:59.254Z,43.30
2019-01-20T02:27:59.164Z,43.10
2019-01-20T02:28:59.076Z,43.30
2019-01-20T02:29:58.992Z,43.60
2019-01-20T02:30:58.903Z,43.40
2019-01-20T02:31:58.811Z,45.10
2019-01-20T02:32:58.717Z,43.30
2019-01-20T02:33:58.640Z,42.20
2019-01-20T02:34:58.540Z,46.10
2019-01-20T02:35:58.452Z,38.20
2019-01-20T02:36:58.355Z,43.70
2019-01-20T02:37:58.266Z,43.20
2019-01-20T02:38:58.178Z,44.30
2019-01-20T02:39:58.093Z,40.80
2019-01-20T02:40:58.003Z,41.60
2019-01-20T02:41:57.930Z,40.80
2019-01-20T02:42:57.818Z,52.90
2019-01-20T02:43:57.743Z,44.40
2019-01-20T02:44:57.641Z,45.10
2019-01-20T02:45:57.553Z,46.30
2019-01-20T02:46:57.473Z,43.00
2019-01-20T02:47:57.391Z,45.90
2019-01-20T02:48:57.291Z,43.90
2019-01-20T02:49:57.194Z,43.90
2019-01-20T02:50:57.103Z,46.70
2019-01-20T02:51:57.018Z,48.00
2019-01-20T02:52:56.929Z,45.50
2019-01-20T02:53:56.831Z,47.50
2019-01-20T02:54:56.742Z,48.90
2019-01-20T02:55:56.654Z,43.20
2019-01-20T02:56:56.570Z,50.20
2019-01-20T02:57:56.480Z,46.10
2019-01-20T02:58:56.383Z,46.30
2019-01-20T02:59:56.298Z,47.50
2019-01-20T03:00:56.218Z,48.10
2019-01-20T03:01:56.121Z,42.30
2019-01-20T03:02:56.033Z,44.10
2019-01-20T03:03:55.944Z,42.90
2019-01-20T03:04:55.845Z,45.40
2019-01-20T03:05:55.771Z,46.20
2019-01-20T03:06:55.969Z,44.80
2019-01-20T03:07:55.580Z,45.30
2019-01-20T03:08:55.494Z,46.40
2019-01-20T03:09:55.406Z,48.20
2019-01-20T03:10:55.306Z,49.00
2019-01-20T03:12:03.256Z,46.80
2019-01-20T03:12:55.131Z,48.60
2019-01-20T03:13:55.045Z,44.90
2019-01-20T03:14:54.958Z,46.60
2019-01-20T03:15:54.859Z,50.40
2019-01-20T03:16:55.071Z,48.10
2019-01-20T03:17:54.682Z,51.50
2019-01-20T03:18:54.596Z,51.90
2019-01-20T03:19:54.509Z,50.40
2019-01-20T03:20:54.420Z,50.30
2019-01-20T03:21:54.320Z,45.90
2019-01-20T03:22:54.232Z,52.70
2019-01-20T03:23:54.150Z,49.30
2019-01-20T03:24:54.059Z,51.70
2019-01-20T03:25:53.970Z,46.30
2019-01-20T03:26:53.882Z,46.40
2019-01-20T03:27:53.783Z,47.60
2019-01-20T03:28:53.698Z,49.80
2019-01-20T03:29:53.611Z,47.20
2019-01-20T03:30:53.521Z,50.80
2019-01-20T03:31:53.424Z,45.60
2019-01-20T03:32:53.335Z,48.40
2019-01-20T03:33:53.248Z,50.50
2019-01-20T03:34:53.160Z,46.80
2019-01-20T03:35:53.072Z,46.10
2019-01-20T03:36:53.236Z,49.20
2019-01-20T03:37:52.885Z,45.00
2019-01-20T03:38:52.803Z,51.90
2019-01-20T03:39:52.711Z,48.30
2019-01-20T03:40:52.622Z,49.20
2019-01-20T03:41:52.834Z,51.00
2019-01-20T03:42:52.440Z,50.60
2019-01-20T03:43:52.349Z,47.70
2019-01-20T03:44:52.261Z,49.70
2019-01-20T03:45:52.173Z,49.30
2019-01-20T03:46:52.085Z,50.80
2019-01-20T03:47:51.987Z,49.60
2019-01-20T03:48:51.900Z,47.50
2019-01-20T03:49:51.811Z,46.00
2019-01-20T03:50:51.725Z,50.40
2019-01-20T03:51:51.637Z,48.90
2019-01-20T03:52:51.537Z,47.30
2019-01-20T03:53:51.461Z,48.10
2019-01-20T03:54:51.361Z,43.90
2019-01-20T03:55:51.276Z,45.40
2019-01-20T03:56:51.200Z,51.00
2019-01-20T03:57:51.105Z,51.20
2019-01-20T03:58:51.004Z,50.20
2019-01-20T03:59:50.913Z,49.00
2019-01-20T04:00:50.826Z,51.40
2019-01-20T04:01:50.738Z,52.30
2019-01-20T04:02:50.640Z,50.00
2019-01-20T04:03:50.551Z,50.60
2019-01-20T04:04:50.462Z,49.50
2019-01-20T04:05:50.375Z,48.70
2019-01-20T04:06:50.301Z,49.80
2019-01-20T04:07:50.200Z,48.10
2019-01-20T04:08:50.103Z,51.30
2019-01-20T04:09:50.013Z,49.80
2019-01-20T04:10:49.925Z,53.80
2019-01-20T04:11:49.851Z,52.00
2019-01-20T04:12:49.752Z,50.10
2019-01-20T04:13:49.653Z,53.40
2019-01-20T04:14:49.563Z,49.70
2019-01-20T04:15:49.480Z,53.60
2019-01-20T04:16:49.390Z,57.20
2019-01-20T04:17:49.302Z,62.50
2019-01-20T04:18:49.202Z,54.50
2019-01-20T04:19:49.114Z,53.20
2019-01-20T04:20:49.027Z,55.80
2019-01-20T04:21:48.939Z,53.80
2019-01-20T04:22:48.852Z,52.90
2019-01-20T04:23:50.137Z,52.10
2019-01-20T04:24:48.664Z,51.60
2019-01-20T04:25:48.583Z,54.00
2019-01-20T04:26:48.789Z,49.60
2019-01-20T04:27:48.405Z,47.80
2019-01-20T04:28:48.314Z,59.20
2019-01-20T04:29:48.215Z,54.10
2019-01-20T04:30:48.135Z,52.50
2019-01-20T04:31:48.040Z,55.80
2019-01-20T04:32:47.956Z,54.10
2019-01-20T04:33:47.854Z,52.60
2019-01-20T04:34:47.765Z,54.70
2019-01-20T04:35:47.680Z,53.10
2019-01-20T04:36:47.841Z,50.10
2019-01-20T04:37:47.504Z,50.50
2019-01-20T04:38:47.407Z,49.30
2019-01-20T04:39:47.331Z,51.60
2019-01-20T04:40:47.229Z,55.20
2019-01-20T04:41:47.144Z,52.30
2019-01-20T04:42:47.043Z,52.10
2019-01-20T04:43:46.958Z,52.60
2019-01-20T04:44:46.870Z,51.20
2019-01-20T04:45:46.780Z,50.90
2019-01-20T04:46:46.693Z,51.40
2019-01-20T04:47:46.594Z,54.70
2019-01-20T04:48:46.506Z,56.90
2019-01-20T04:49:46.418Z,53.30
2019-01-20T04:50:46.331Z,55.50
2019-01-20T04:51:46.242Z,50.70
2019-01-20T04:52:46.147Z,57.70
2019-01-20T04:53:46.058Z,63.00
2019-01-20T04:54:45.969Z,54.20
2019-01-20T04:55:45.881Z,60.70
2019-01-20T04:56:45.793Z,61.10
2019-01-20T04:57:45.697Z,54.50
2019-01-20T04:58:45.607Z,59.10
2019-01-20T04:59:45.520Z,55.20
2019-01-20T05:00:45.431Z,55.00
2019-01-20T05:01:45.356Z,56.80
2019-01-20T05:02:45.256Z,52.90
2019-01-20T05:03:45.159Z,52.70
2019-01-20T05:04:45.311Z,55.70
2019-01-20T05:05:44.982Z,53.60
2019-01-20T05:06:44.895Z,52.30
2019-01-20T05:07:44.794Z,52.40
2019-01-20T05:08:44.708Z,54.50
2019-01-20T05:09:44.624Z,59.20
2019-01-20T05:10:44.534Z,51.00
2019-01-20T05:11:44.445Z,55.10
2019-01-20T05:12:44.345Z,56.00
2019-01-20T05:13:44.258Z,52.10
2019-01-20T05:14:44.170Z,52.10
2019-01-20T05:15:44.083Z,53.40
2019-01-20T05:16:43.983Z,55.60
2019-01-20T05:17:43.895Z,54.50
2019-01-20T05:18:43.811Z,53.10
2019-01-20T05:19:43.720Z,51.60
2019-01-20T05:20:43.634Z,55.80
2019-01-20T05:21:43.536Z,52.10
2019-01-20T05:22:43.445Z,53.90
2019-01-20T05:23:43.359Z,55.10
2019-01-20T05:24:43.271Z,50.00
2019-01-20T05:25:43.185Z,54.60
2019-01-20T05:26:43.084Z,51.60
2019-01-20T05:27:42.997Z,53.00
2019-01-20T05:28:42.909Z,52.10
2019-01-20T05:29:42.822Z,58.80
2019-01-20T05:30:42.723Z,58.80
2019-01-20T05:31:42.888Z,53.70
2019-01-20T05:32:42.547Z,49.90
2019-01-20T05:33:42.459Z,52.00
2019-01-20T05:34:42.378Z,49.60
2019-01-20T05:35:42.272Z,52.20
2019-01-20T05:36:42.186Z,59.00
2019-01-20T05:37:42.097Z,56.20
2019-01-20T05:38:42.011Z,55.90
2019-01-20T05:39:41.922Z,57.40
2019-01-20T05:40:41.823Z,55.50
2019-01-20T05:41:42.096Z,54.70
2019-01-20T05:42:46.509Z,55.80
2019-01-20T05:43:41.561Z,57.90
2019-01-20T05:44:41.474Z,60.60
2019-01-20T05:45:41.374Z,60.90
2019-01-20T05:46:41.286Z,56.40
2019-01-20T05:47:41.200Z,55.50
2019-01-20T05:48:41.112Z,57.30
2019-01-20T05:49:41.028Z,60.90
2019-01-20T05:50:40.937Z,57.10
2019-01-20T05:51:40.837Z,57.20
2019-01-20T05:52:40.750Z,56.70
2019-01-20T05:53:40.663Z,60.60
2019-01-20T05:54:40.563Z,58.60
2019-01-20T05:55:40.474Z,58.80
2019-01-20T05:56:40.407Z,58.50
2019-01-20T05:57:40.301Z,54.30
2019-01-20T05:58:40.202Z,54.40
2019-01-20T05:59:40.112Z,57.80
2019-01-20T06:00:40.040Z,58.00
2019-01-20T06:01:40.188Z,56.50
2019-01-20T06:02:39.850Z,57.80
2019-01-20T06:03:39.752Z,56.10
2019-01-20T06:04:39.663Z,59.10
2019-01-20T06:05:39.575Z,61.60
2019-01-20T06:06:39.488Z,58.40
2019-01-20T06:07:39.400Z,57.00
2019-01-20T06:08:39.302Z,60.90
2019-01-20T06:09:39.214Z,57.80
2019-01-20T06:10:39.127Z,57.00
2019-01-20T06:11:39.040Z,58.40
2019-01-20T06:12:38.952Z,54.80
2019-01-20T06:13:38.857Z,54.60
2019-01-20T06:14:38.765Z,51.40
2019-01-20T06:15:38.690Z,56.20
2019-01-20T06:16:38.593Z,53.80
2019-01-20T06:17:38.502Z,54.30
2019-01-20T06:18:38.402Z,58.60
2019-01-20T06:19:38.315Z,59.20
2019-01-20T06:20:38.227Z,57.20
2019-01-20T06:21:38.142Z,56.70
2019-01-20T06:22:38.092Z,58.60
2019-01-20T06:23:37.952Z,54.20
2019-01-20T06:24:37.866Z,54.50
2019-01-20T06:25:37.778Z,53.60
2019-01-20T06:26:37.678Z,57.00
2019-01-20T06:27:37.593Z,58.30
2019-01-20T06:28:37.505Z,56.80
2019-01-20T06:29:37.417Z,64.00
2019-01-20T06:30:37.331Z,57.10
2019-01-20T06:31:37.229Z,59.90
2019-01-20T06:32:37.142Z,54.20
2019-01-20T06:33:37.054Z,55.80
2019-01-20T06:34:36.968Z,57.00
2019-01-20T06:35:36.879Z,57.70
2019-01-20T06:36:36.779Z,59.50
2019-01-20T06:37:36.694Z,56.70
2019-01-20T06:38:36.605Z,57.00
2019-01-20T06:39:36.518Z,57.30
2019-01-20T06:40:36.417Z,60.70
2019-01-20T06:41:36.330Z,55.80
2019-01-20T06:42:36.246Z,54.00
2019-01-20T06:43:36.155Z,59.70
2019-01-20T06:44:36.068Z,62.50
2019-01-20T06:45:35.968Z,57.70
2019-01-20T06:46:35.880Z,60.00
2019-01-20T06:47:35.794Z,57.90
2019-01-20T06:48:35.705Z,57.00
2019-01-20T06:49:35.610Z,58.70
2019-01-20T06:50:35.519Z,55.50
2019-01-20T06:51:35.431Z,56.30
2019-01-20T06:52:35.345Z,62.60
2019-01-20T06:53:35.256Z,60.10
2019-01-20T06:54:35.156Z,59.30
2019-01-20T06:55:35.069Z,57.60
2019-01-20T06:56:34.995Z,58.30
2019-01-20T06:57:34.894Z,62.20
2019-01-20T06:58:34.795Z,58.00
2019-01-20T06:59:34.706Z,58.70
2019-01-20T07:00:34.624Z,60.20
2019-01-20T07:01:34.532Z,62.60
2019-01-20T07:02:34.445Z,56.00
2019-01-20T07:03:34.390Z,63.30
2019-01-20T07:04:34.257Z,66.80
2019-01-20T07:05:34.171Z,60.10
2019-01-20T07:06:34.095Z,60.60
2019-01-20T07:07:33.995Z,56.70
2019-01-20T07:08:33.895Z,59.20
2019-01-20T07:09:33.808Z,60.10
2019-01-20T07:10:33.729Z,55.40
2019-01-20T07:11:33.633Z,63.60
2019-01-20T07:12:33.535Z,59.80
2019-01-20T07:13:33.447Z,57.60
2019-01-20T07:14:33.359Z,56.10
2019-01-20T07:15:33.275Z,57.70
2019-01-20T07:16:33.196Z,59.80
2019-01-20T07:17:33.097Z,61.10
2019-01-20T07:18:32.996Z,61.30
2019-01-20T07:19:32.909Z,57.70
2019-01-20T07:20:32.827Z,58.40
2019-01-20T07:21:32.735Z,59.80
2019-01-20T07:22:32.638Z,61.00
2019-01-20T07:23:32.547Z,62.60
2019-01-20T07:24:32.459Z,59.30
2019-01-20T07:25:32.373Z,60.00
2019-01-20T07:26:32.275Z,68.40
2019-01-20T07:27:32.198Z,61.50
2019-01-20T07:28:32.098Z,65.40
2019-01-20T07:29:32.010Z,61.70
2019-01-20T07:30:31.910Z,62.30
2019-01-20T07:31:32.074Z,63.20
2019-01-20T07:32:31.735Z,62.70
2019-01-20T07:33:31.649Z,61.30
2019-01-20T07:34:31.561Z,62.10
2019-01-20T07:35:31.461Z,65.50
2019-01-20T07:36:31.374Z,63.40
2019-01-20T07:37:31.286Z,68.10
2019-01-20T07:38:31.199Z,60.20
2019-01-20T07:39:31.102Z,66.80
2019-01-20T07:40:31.024Z,64.20
2019-01-20T07:41:30.924Z,66.00
2019-01-20T07:42:30.836Z,65.60
2019-01-20T07:43:30.750Z,65.90
2019-01-20T07:44:30.651Z,67.10
2019-01-20T07:45:30.561Z,61.20
2019-01-20T07:46:30.725Z,68.20
2019-01-20T07:47:30.387Z,64.90
2019-01-20T07:48:30.288Z,61.60
2019-01-20T07:49:30.200Z,62.60
2019-01-20T07:50:30.112Z,62.60
2019-01-20T07:51:30.027Z,65.70
2019-01-20T07:52:29.939Z,64.00
2019-01-20T07:53:29.840Z,66.90
2019-01-20T07:54:29.751Z,63.70
2019-01-20T07:55:29.662Z,63.00
2019-01-20T07:56:29.579Z,60.60
2019-01-20T07:57:29.489Z,60.50
2019-01-20T07:58:29.388Z,67.20
2019-01-20T07:59:29.306Z,64.70
2019-01-20T08:00:29.213Z,63.80
2019-01-20T08:01:29.129Z,62.50
2019-01-20T08:02:29.027Z,61.90
2019-01-20T08:03:28.939Z,64.80
2019-01-20T08:04:28.851Z,60.90
2019-01-20T08:05:28.765Z,62.20
2019-01-20T08:06:28.976Z,60.90
2019-01-20T08:07:28.577Z,56.50
2019-01-20T08:08:28.489Z,58.50
2019-01-20T08:09:28.402Z,61.30
2019-01-20T08:10:28.314Z,58.90
2019-01-20T08:11:28.226Z,60.60
2019-01-20T08:12:28.128Z,62.50
2019-01-20T08:13:28.039Z,57.90
2019-01-20T08:14:27.953Z,56.00
2019-01-20T08:15:27.865Z,59.10
2019-01-20T08:16:27.779Z,53.00
2019-01-20T08:17:27.678Z,53.30
2019-01-20T08:18:27.602Z,52.30
2019-01-20T08:19:27.504Z,51.70
2019-01-20T08:20:27.423Z,56.70
2019-01-20T08:21:27.328Z,55.10
2019-01-20T08:22:27.228Z,52.70
2019-01-20T08:23:27.142Z,58.00
2019-01-20T08:24:27.056Z,54.90
2019-01-20T08:25:26.966Z,55.30
2019-01-20T08:26:26.881Z,54.90
2019-01-20T08:27:26.804Z,51.50
2019-01-20T08:28:26.703Z,48.50
2019-01-20T08:29:26.605Z,50.70
2019-01-20T08:30:26.516Z,53.30
2019-01-20T08:31:26.430Z,50.10
2019-01-20T08:32:26.342Z,53.40
2019-01-20T08:33:26.255Z,53.20
2019-01-20T08:34:26.155Z,55.20
2019-01-20T08:35:26.067Z,52.60
2019-01-20T08:36:26.418Z,51.50
2019-01-20T08:37:28.869Z,56.30
2019-01-20T08:38:25.807Z,54.10
2019-01-20T08:39:25.717Z,51.20
2019-01-20T08:40:25.619Z,50.20
2019-01-20T08:41:25.533Z,50.80
2019-01-20T08:42:25.443Z,50.00
2019-01-20T08:43:31.579Z,49.80
2019-01-20T08:44:25.268Z,50.90
2019-01-20T08:45:25.182Z,51.20
2019-01-20T08:46:25.094Z,56.80
2019-01-20T08:47:24.995Z,53.30
2019-01-20T08:48:24.907Z,52.90
2019-01-20T08:49:24.819Z,53.10
2019-01-20T08:50:24.732Z,50.90
2019-01-20T08:51:24.644Z,56.00
2019-01-20T08:52:24.557Z,47.20
2019-01-20T08:53:24.469Z,48.20
2019-01-20T08:54:24.381Z,48.40
2019-01-20T08:55:24.283Z,50.30
2019-01-20T08:56:24.194Z,49.50
2019-01-20T08:57:24.109Z,48.90
2019-01-20T08:58:24.021Z,50.50
2019-01-20T08:59:23.934Z,48.10
2019-01-20T09:00:23.845Z,50.40
2019-01-20T09:01:23.758Z,47.20
2019-01-20T09:02:23.683Z,50.90
2019-01-20T09:03:23.585Z,48.80
2019-01-20T09:04:23.484Z,48.60
2019-01-20T09:05:23.395Z,55.00
2019-01-20T09:06:23.309Z,49.80
2019-01-20T09:07:23.220Z,49.30
2019-01-20T09:08:23.134Z,46.40
2019-01-20T09:09:23.049Z,48.90
2019-01-20T09:10:22.963Z,45.70
2019-01-20T09:11:22.871Z,47.50
2019-01-20T09:12:22.785Z,46.70
2019-01-20T09:13:22.697Z,48.50
2019-01-20T09:14:22.597Z,49.80
2019-01-20T09:15:22.511Z,45.00
2019-01-20T09:16:22.421Z,44.10
2019-01-20T09:17:22.335Z,46.50
2019-01-20T09:18:22.247Z,46.90
2019-01-20T09:19:22.162Z,46.70
2019-01-20T09:20:22.074Z,46.40
2019-01-20T09:21:21.985Z,48.20
2019-01-20T09:22:21.898Z,45.70
2019-01-20T09:23:21.810Z,46.60
2019-01-20T09:24:21.724Z,48.50
2019-01-20T09:25:21.625Z,45.00
2019-01-20T09:26:21.536Z,46.50
2019-01-20T09:27:21.461Z,44.00
2019-01-20T09:28:21.361Z,47.80
2019-01-20T09:29:21.274Z,47.90
2019-01-20T09:30:21.187Z,48.60
2019-01-20T09:31:21.098Z,65.30
2019-01-20T09:32:21.014Z,49.60
2019-01-20T09:33:24.751Z,51.80
2019-01-20T09:34:20.836Z,48.70
2019-01-20T09:35:20.750Z,49.40
2019-01-20T09:36:20.667Z,47.20
2019-01-20T09:37:20.576Z,48.40
2019-01-20T09:38:20.487Z,48.90
2019-01-20T09:39:20.399Z,49.20
2019-01-20T09:40:20.313Z,48.70
2019-01-20T09:41:20.225Z,46.20
2019-01-20T09:42:20.126Z,50.60
2019-01-20T09:43:20.039Z,50.80
2019-01-20T09:44:19.951Z,51.20
2019-01-20T09:45:19.863Z,51.60
2019-01-20T09:46:19.775Z,53.50
2019-01-20T09:47:19.689Z,46.60
2019-01-20T09:48:19.601Z,51.60
2019-01-20T09:49:19.513Z,48.50
2019-01-20T09:50:19.426Z,49.50
2019-01-20T09:51:19.339Z,47.40
2019-01-20T09:52:19.251Z,45.90
2019-01-20T09:53:19.166Z,49.50
2019-01-20T09:54:19.080Z,48.30
2019-01-20T09:55:18.990Z,53.00
2019-01-20T09:56:18.901Z,50.20
2019-01-20T09:57:18.815Z,50.40
2019-01-20T09:58:19.334Z,51.10
2019-01-20T09:59:18.642Z,48.10
2019-01-20T10:00:18.549Z,48.50
2019-01-20T10:01:18.456Z,47.60
2019-01-20T10:02:18.366Z,50.70
2019-01-20T10:03:18.277Z,51.00
2019-01-20T10:04:18.192Z,48.80
2019-01-20T10:05:18.129Z,48.00
2019-01-20T10:06:18.015Z,49.40
2019-01-20T10:07:17.927Z,49.60
2019-01-20T10:08:17.841Z,46.60
2019-01-20T10:09:17.754Z,48.10
2019-01-20T10:10:17.666Z,49.60
2019-01-20T10:11:17.578Z,49.10
2019-01-20T10:12:17.491Z,48.60
2019-01-20T10:13:17.403Z,49.20
2019-01-20T10:14:17.316Z,47.30
2019-01-20T10:15:17.227Z,51.80
2019-01-20T10:16:17.141Z,49.10
2019-01-20T10:17:17.042Z,46.80
2019-01-20T10:18:16.954Z,48.00
2019-01-20T10:19:16.867Z,51.50
2019-01-20T10:20:16.779Z,47.50
2019-01-20T10:21:16.755Z,49.90
2019-01-20T10:22:16.604Z,46.50
2019-01-20T10:23:16.517Z,46.90
2019-01-20T10:24:16.431Z,46.00
2019-01-20T10:25:16.344Z,49.30
2019-01-20T10:26:16.255Z,49.70
2019-01-20T10:27:16.167Z,47.80
2019-01-20T10:28:16.079Z,48.80
2019-01-20T10:29:15.993Z,51.40
2019-01-20T10:30:15.906Z,52.40
2019-01-20T10:31:15.818Z,48.20
2019-01-20T10:32:15.732Z,45.40
2019-01-20T10:33:15.644Z,48.90
2019-01-20T10:34:15.555Z,48.20
2019-01-20T10:35:15.468Z,48.70
2019-01-20T10:36:15.381Z,45.20
2019-01-20T10:37:15.294Z,49.10
2019-01-20T10:38:15.205Z,47.40
2019-01-20T10:39:15.123Z,43.80
2019-01-20T10:40:15.031Z,46.20
2019-01-20T10:41:14.944Z,46.70
2019-01-20T10:42:14.863Z,45.90
2019-01-20T10:43:14.777Z,47.50
2019-01-20T10:44:14.694Z,50.70
2019-01-20T10:45:14.595Z,47.60
2019-01-20T10:46:14.507Z,48.40
2019-01-20T10:47:14.420Z,46.10
2019-01-20T10:48:14.333Z,44.70
2019-01-20T10:49:14.245Z,47.50
2019-01-20T10:50:14.158Z,46.40
2019-01-20T10:51:14.101Z,47.50
2019-01-20T10:52:13.982Z,47.70
2019-01-20T10:53:13.896Z,43.50
2019-01-20T10:54:13.820Z,45.50
2019-01-20T10:55:13.722Z,48.00
2019-01-20T10:56:13.634Z,47.30
2019-01-20T10:57:13.558Z,46.10
2019-01-20T10:58:13.475Z,43.30
2019-01-20T10:59:13.397Z,47.30
2019-01-20T11:00:13.296Z,46.70
2019-01-20T11:01:13.209Z,47.20
2019-01-20T11:02:13.121Z,49.50
2019-01-20T11:03:13.034Z,40.70
2019-01-20T11:04:12.948Z,44.20
2019-01-20T11:05:12.873Z,45.90
2019-01-20T11:06:12.773Z,45.80
2019-01-20T11:07:12.685Z,44.60
2019-01-20T11:08:12.612Z,46.50
2019-01-20T11:09:12.523Z,46.30
2019-01-20T11:10:12.437Z,44.90
2019-01-20T11:11:12.348Z,43.40
2019-01-20T11:12:12.260Z,43.80
2019-01-20T11:13:12.173Z,47.60
2019-01-20T11:14:12.084Z,45.10
2019-01-20T11:15:12.010Z,45.00
2019-01-20T11:16:11.922Z,44.90
2019-01-20T11:17:11.835Z,43.70
2019-01-20T11:18:11.749Z,41.00
2019-01-20T11:19:11.660Z,40.90
2019-01-20T11:20:11.574Z,43.70
2019-01-20T11:21:11.749Z,44.40
2019-01-20T11:22:11.411Z,46.40
2019-01-20T11:23:11.325Z,42.40
2019-01-20T11:24:11.241Z,42.90
2019-01-20T11:25:11.161Z,40.70
2019-01-20T11:26:11.076Z,42.90
2019-01-20T11:27:10.986Z,37.40
2019-01-20T11:28:10.901Z,43.30
2019-01-20T11:29:10.824Z,39.00
2019-01-20T11:30:10.736Z,40.30
2019-01-20T11:31:10.652Z,43.10
2019-01-20T11:32:10.564Z,43.00
2019-01-20T11:33:10.487Z,41.20
2019-01-20T11:34:10.402Z,44.40
2019-01-20T11:35:10.313Z,44.10
2019-01-20T11:36:10.226Z,46.60
2019-01-20T11:37:10.151Z,44.20
2019-01-20T11:38:10.064Z,45.00
2019-01-20T11:39:09.975Z,44.30
2019-01-20T11:40:09.906Z,46.20
2019-01-20T11:41:09.812Z,44.60
2019-01-20T11:42:09.726Z,44.60
2019-01-20T11:43:09.641Z,43.60
2019-01-20T11:44:16.552Z,44.10
2019-01-20T11:45:09.477Z,41.10
2019-01-20T11:46:09.388Z,39.60
2019-01-20T11:47:09.314Z,37.90
2019-01-20T11:48:09.230Z,36.30
2019-01-20T11:49:09.138Z,32.70
2019-01-20T11:50:09.077Z,36.10
2019-01-20T11:51:08.976Z,41.80
2019-01-20T11:52:08.892Z,37.10
2019-01-20T11:53:08.815Z,37.40
2019-01-20T11:54:08.727Z,36.70
2019-01-20T11:55:08.639Z,38.50
2019-01-20T11:56:08.554Z,39.20
2019-01-20T11:57:08.477Z,42.80
2019-01-20T11:58:08.390Z,38.80
2019-01-20T11:59:08.307Z,38.80
2019-01-20T12:00:08.229Z,37.60
2019-01-20T12:01:08.141Z,40.00
2019-01-20T12:02:08.057Z,41.10
2019-01-20T12:03:07.979Z,39.30
2019-01-20T12:04:07.891Z,39.00
2019-01-20T12:05:07.806Z,36.00
2019-01-20T12:06:07.716Z,36.80
2019-01-20T12:07:07.641Z,33.40
2019-01-20T12:08:07.554Z,32.80
2019-01-20T12:09:07.468Z,35.60
2019-01-20T12:10:07.390Z,36.10
2019-01-20T12:11:07.307Z,36.70
2019-01-20T12:12:07.217Z,35.20
2019-01-20T12:13:07.141Z,37.70
2019-01-20T12:14:07.055Z,35.80
2019-01-20T12:15:06.969Z,38.00
2019-01-20T12:16:06.892Z,37.80
2019-01-20T12:17:06.807Z,38.20
2019-01-20T12:18:06.717Z,35.70
2019-01-20T12:19:06.642Z,38.10
2019-01-20T12:20:06.555Z,36.30
2019-01-20T12:21:06.467Z,34.50
2019-01-20T12:22:06.405Z,35.20
2019-01-20T12:23:06.305Z,35.70
2019-01-20T12:24:06.218Z,36.20
2019-01-20T12:25:06.143Z,34.20
2019-01-20T12:26:06.057Z,34.30
2019-01-20T12:27:05.975Z,33.20
2019-01-20T12:28:05.893Z,33.80
2019-01-20T12:29:05.808Z,35.30
2019-01-20T12:30:05.719Z,34.10
2019-01-20T12:31:05.658Z,33.40
2019-01-20T12:32:05.557Z,33.10
2019-01-20T12:33:05.469Z,29.70
2019-01-20T12:34:05.395Z,31.20
2019-01-20T12:35:05.308Z,32.00
2019-01-20T12:36:05.219Z,31.20
2019-01-20T12:37:05.145Z,30.60
2019-01-20T12:38:05.063Z,28.30
2019-01-20T12:39:04.970Z,31.20
2019-01-20T12:40:04.894Z,31.00
2019-01-20T12:41:04.809Z,35.00
2019-01-20T12:42:04.720Z,32.60
2019-01-20T12:43:04.645Z,33.50
2019-01-20T12:44:04.557Z,37.20
2019-01-20T12:45:04.484Z,33.20
2019-01-20T12:46:04.395Z,32.30
2019-01-20T12:47:04.309Z,34.30
2019-01-20T12:48:04.220Z,34.20
2019-01-20T12:49:04.145Z,32.20
2019-01-20T12:50:04.058Z,33.70
2019-01-20T12:51:03.983Z,31.10